sensor_id;sensor_type;location;lat;lon;timestamp;pressure;altitude;pressure_sealevel;temperature;humidity
48041;BME280;33815;48.386;11.738;2024-03-22T00:01:09;97251.31;;;2.78;100.00
48041;BME280;33815;48.386;11.738;2024-03-22T00:03:34;97264.16;;;2.94;100.00
48041;BME280;33815;48.386;11.738;2024-03-22T00:05:59;97259.19;;;2.91;100.00
48041;BME280;33815;48.386;11.738;2024-03-22T00:08:24;97271.88;;;2.94;100.00
48041;BME280;33815;48.386;11.738;2024-03-22T00:10:50;97236.88;;;2.76;100.00
48041;BME280;33815;48.386;11.738;2024-03-22T00:13:15;97262.59;;;2.91;100.00
48041;BME280;33815;48.386;11.738;2024-03-22T00:15:40;97265.97;;;3.08;100.00
48041;BME280;33815;48.386;11.738;2024-03-22T00:18:07;97270.69;;;3.16;100.00
48041;BME280;33815;48.386;11.738;2024-03-22T00:20:32;97244.16;;;2.99;100.00
48041;BME280;33815;48.386;11.738;2024-03-22T00:22:58;97260.09;;;3.06;100.00
48041;BME280;33815;48.386;11.738;2024-03-22T00:25:23;97245.66;;;2.87;100.00
48041;BME280;33815;48.386;11.738;2024-03-22T00:27:48;97265.25;;;2.90;100.00
48041;BME280;33815;48.386;11.738;2024-03-22T00:30:14;97244.78;;;2.72;100.00
48041;BME280;33815;48.386;11.738;2024-03-22T00:32:39;97259.28;;;2.73;100.00
48041;BME280;33815;48.386;11.738;2024-03-22T00:35:05;97248.69;;;2.64;100.00
48041;BME280;33815;48.386;11.738;2024-03-22T00:37:30;97267.69;;;2.61;100.00
48041;BME280;33815;48.386;11.738;2024-03-22T00:39:55;97261.88;;;2.57;100.00
48041;BME280;33815;48.386;11.738;2024-03-22T00:42:21;97244.53;;;2.45;100.00
48041;BME280;33815;48.386;11.738;2024-03-22T00:44:46;97248.59;;;2.49;100.00
48041;BME280;33815;48.386;11.738;2024-03-22T00:47:11;97230.25;;;2.39;100.00
48041;BME280;33815;48.386;11.738;2024-03-22T00:49:36;97260.22;;;2.56;100.00
48041;BME280;33815;48.386;11.738;2024-03-22T00:52:02;97241.88;;;2.63;100.00
48041;BME280;33815;48.386;11.738;2024-03-22T00:54:27;97245.19;;;2.65;100.00
48041;BME280;33815;48.386;11.738;2024-03-22T00:56:53;97250.56;;;2.76;100.00
48041;BME280;33815;48.386;11.738;2024-03-22T00:59:18;97235.25;;;2.59;100.00
48041;BME280;33815;48.386;11.738;2024-03-22T01:01:43;97215.31;;;2.46;100.00
48041;BME280;33815;48.386;11.738;2024-03-22T01:04:09;97233.84;;;2.53;100.00
48041;BME280;33815;48.386;11.738;2024-03-22T01:06:34;97227.78;;;2.54;100.00
48041;BME280;33815;48.386;11.738;2024-03-22T01:09:00;97235.56;;;2.52;100.00
48041;BME280;33815;48.386;11.738;2024-03-22T01:11:25;97221.13;;;2.50;100.00
48041;BME280;33815;48.386;11.738;2024-03-22T01:13:51;97214.66;;;2.43;100.00
48041;BME280;33815;48.386;11.738;2024-03-22T01:16:16;97215.81;;;2.37;100.00
48041;BME280;33815;48.386;11.738;2024-03-22T01:18:41;97225.13;;;2.39;100.00
48041;BME280;33815;48.386;11.738;2024-03-22T01:21:07;97214.00;;;2.39;100.00
48041;BME280;33815;48.386;11.738;2024-03-22T01:23:32;97220.13;;;2.52;100.00
48041;BME280;33815;48.386;11.738;2024-03-22T01:25:57;97200.38;;;2.37;100.00
48041;BME280;33815;48.386;11.738;2024-03-22T01:28:23;97217.00;;;2.47;100.00
48041;BME280;33815;48.386;11.738;2024-03-22T01:30:48;97222.44;;;2.41;100.00
48041;BME280;33815;48.386;11.738;2024-03-22T01:33:13;97188.25;;;2.23;100.00
48041;BME280;33815;48.386;11.738;2024-03-22T01:35:38;97219.41;;;2.34;100.00
48041;BME280;33815;48.386;11.738;2024-03-22T01:38:04;97192.19;;;2.30;100.00
48041;BME280;33815;48.386;11.738;2024-03-22T01:40:29;97174.75;;;2.19;100.00
48041;BME280;33815;48.386;11.738;2024-03-22T01:42:58;97204.44;;;2.41;100.00
48041;BME280;33815;48.386;11.738;2024-03-22T01:45:24;97211.09;;;2.29;100.00
48041;BME280;33815;48.386;11.738;2024-03-22T01:47:53;97200.72;;;2.31;100.00
48041;BME280;33815;48.386;11.738;2024-03-22T01:50:20;97188.78;;;2.14;100.00
48041;BME280;33815;48.386;11.738;2024-03-22T01:52:45;97185.63;;;2.09;100.00
48041;BME280;33815;48.386;11.738;2024-03-22T01:55:11;97192.69;;;2.05;100.00
48041;BME280;33815;48.386;11.738;2024-03-22T01:57:38;97184.38;;;2.00;100.00
48041;BME280;33815;48.386;11.738;2024-03-22T02:00:03;97177.31;;;1.87;100.00
48041;BME280;33815;48.386;11.738;2024-03-22T02:02:29;97167.53;;;1.78;100.00
48041;BME280;33815;48.386;11.738;2024-03-22T02:04:57;97192.66;;;1.89;100.00
48041;BME280;33815;48.386;11.738;2024-03-22T02:07:22;97190.84;;;1.91;100.00
48041;BME280;33815;48.386;11.738;2024-03-22T02:09:48;97180.78;;;1.86;100.00
48041;BME280;33815;48.386;11.738;2024-03-22T02:12:13;97185.09;;;2.02;100.00
48041;BME280;33815;48.386;11.738;2024-03-22T02:14:39;97183.78;;;1.95;100.00
48041;BME280;33815;48.386;11.738;2024-03-22T02:17:04;97162.69;;;1.72;100.00
48041;BME280;33815;48.386;11.738;2024-03-22T02:19:30;97179.38;;;1.81;100.00
48041;BME280;33815;48.386;11.738;2024-03-22T02:21:55;97178.88;;;1.74;100.00
48041;BME280;33815;48.386;11.738;2024-03-22T02:24:20;97158.88;;;1.63;100.00
48041;BME280;33815;48.386;11.738;2024-03-22T02:26:46;97165.69;;;1.64;100.00
48041;BME280;33815;48.386;11.738;2024-03-22T02:29:11;97169.16;;;1.63;100.00
48041;BME280;33815;48.386;11.738;2024-03-22T02:31:36;97160.84;;;1.58;100.00
48041;BME280;33815;48.386;11.738;2024-03-22T02:34:01;97164.66;;;1.51;100.00
48041;BME280;33815;48.386;11.738;2024-03-22T02:36:27;97162.16;;;1.49;100.00
48041;BME280;33815;48.386;11.738;2024-03-22T02:38:53;97163.84;;;1.50;100.00
48041;BME280;33815;48.386;11.738;2024-03-22T02:41:18;97167.38;;;1.48;100.00
48041;BME280;33815;48.386;11.738;2024-03-22T02:43:43;97160.75;;;1.44;100.00
48041;BME280;33815;48.386;11.738;2024-03-22T02:46:09;97151.03;;;1.33;100.00
48041;BME280;33815;48.386;11.738;2024-03-22T02:48:34;97146.06;;;1.46;100.00
48041;BME280;33815;48.386;11.738;2024-03-22T02:50:59;97159.31;;;1.38;100.00
48041;BME280;33815;48.386;11.738;2024-03-22T02:53:25;97163.69;;;1.36;100.00
48041;BME280;33815;48.386;11.738;2024-03-22T02:55:50;97137.66;;;1.26;100.00
48041;BME280;33815;48.386;11.738;2024-03-22T02:58:17;97144.09;;;1.35;100.00
48041;BME280;33815;48.386;11.738;2024-03-22T03:00:42;97147.38;;;1.37;100.00
48041;BME280;33815;48.386;11.738;2024-03-22T03:03:07;97148.22;;;1.38;100.00
48041;BME280;33815;48.386;11.738;2024-03-22T03:05:33;97134.44;;;1.23;100.00
48041;BME280;33815;48.386;11.738;2024-03-22T03:08:00;97126.28;;;1.14;100.00
48041;BME280;33815;48.386;11.738;2024-03-22T03:10:26;97129.75;;;1.13;100.00
48041;BME280;33815;48.386;11.738;2024-03-22T03:12:51;97145.94;;;1.49;100.00
48041;BME280;33815;48.386;11.738;2024-03-22T03:15:17;97138.31;;;1.47;100.00
48041;BME280;33815;48.386;11.738;2024-03-22T03:17:42;97135.31;;;1.39;100.00
48041;BME280;33815;48.386;11.738;2024-03-22T03:20:08;97124.53;;;1.32;100.00
48041;BME280;33815;48.386;11.738;2024-03-22T03:22:35;97111.63;;;1.16;100.00
48041;BME280;33815;48.386;11.738;2024-03-22T03:25:01;97115.41;;;1.27;100.00
48041;BME280;33815;48.386;11.738;2024-03-22T03:27:28;97119.75;;;1.25;100.00
48041;BME280;33815;48.386;11.738;2024-03-22T03:29:53;97096.03;;;1.03;100.00
48041;BME280;33815;48.386;11.738;2024-03-22T03:32:18;97116.47;;;1.05;100.00
48041;BME280;33815;48.386;11.738;2024-03-22T03:34:43;97114.22;;;0.99;100.00
48041;BME280;33815;48.386;11.738;2024-03-22T03:37:09;97114.56;;;0.93;100.00
48041;BME280;33815;48.386;11.738;2024-03-22T03:39:34;97107.16;;;0.87;100.00
48041;BME280;33815;48.386;11.738;2024-03-22T03:41:59;97091.38;;;0.77;100.00
48041;BME280;33815;48.386;11.738;2024-03-22T03:44:24;97100.66;;;0.79;100.00
48041;BME280;33815;48.386;11.738;2024-03-22T03:46:50;97102.63;;;0.74;100.00
48041;BME280;33815;48.386;11.738;2024-03-22T03:49:15;97094.19;;;0.72;100.00
48041;BME280;33815;48.386;11.738;2024-03-22T03:51:40;97093.22;;;0.75;100.00
48041;BME280;33815;48.386;11.738;2024-03-22T03:54:05;97083.31;;;0.67;100.00
48041;BME280;33815;48.386;11.738;2024-03-22T03:56:30;97097.19;;;0.80;100.00
48041;BME280;33815;48.386;11.738;2024-03-22T03:58:56;97096.66;;;0.74;100.00
48041;BME280;33815;48.386;11.738;2024-03-22T04:01:21;97094.63;;;0.63;100.00
48041;BME280;33815;48.386;11.738;2024-03-22T04:03:48;97105.66;;;0.65;100.00
48041;BME280;33815;48.386;11.738;2024-03-22T04:06:13;97095.69;;;0.59;100.00
48041;BME280;33815;48.386;11.738;2024-03-22T04:08:39;97103.47;;;0.57;100.00
48041;BME280;33815;48.386;11.738;2024-03-22T04:11:04;97086.44;;;0.56;100.00
48041;BME280;33815;48.386;11.738;2024-03-22T04:13:29;97087.41;;;0.54;100.00
48041;BME280;33815;48.386;11.738;2024-03-22T04:15:58;97088.66;;;0.45;100.00
48041;BME280;33815;48.386;11.738;2024-03-22T04:18:24;97084.09;;;0.34;100.00
48041;BME280;33815;48.386;11.738;2024-03-22T04:20:59;97088.97;;;0.39;100.00
48041;BME280;33815;48.386;11.738;2024-03-22T04:23:25;97093.41;;;0.35;100.00
48041;BME280;33815;48.386;11.738;2024-03-22T04:25:58;97067.03;;;0.15;100.00
48041;BME280;33815;48.386;11.738;2024-03-22T04:28:27;97082.03;;;0.23;100.00
48041;BME280;33815;48.386;11.738;2024-03-22T04:31:07;97082.84;;;0.24;100.00
48041;BME280;33815;48.386;11.738;2024-03-22T04:33:37;97077.94;;;0.19;100.00
48041;BME280;33815;48.386;11.738;2024-03-22T04:36:03;97063.53;;;-0.01;100.00
48041;BME280;33815;48.386;11.738;2024-03-22T04:38:29;97070.75;;;0.08;100.00
48041;BME280;33815;48.386;11.738;2024-03-22T04:40:55;97073.31;;;0.08;100.00
48041;BME280;33815;48.386;11.738;2024-03-22T04:43:22;97060.00;;;0.02;100.00
48041;BME280;33815;48.386;11.738;2024-03-22T04:45:48;97067.78;;;0.17;100.00
48041;BME280;33815;48.386;11.738;2024-03-22T04:48:16;97057.94;;;0.08;100.00
48041;BME280;33815;48.386;11.738;2024-03-22T04:50:42;97075.03;;;0.27;100.00
48041;BME280;33815;48.386;11.738;2024-03-22T04:53:07;97069.81;;;0.28;100.00
48041;BME280;33815;48.386;11.738;2024-03-22T04:55:32;97071.63;;;0.26;100.00
48041;BME280;33815;48.386;11.738;2024-03-22T04:57:58;97072.59;;;0.24;100.00
48041;BME280;33815;48.386;11.738;2024-03-22T05:00:23;97067.34;;;0.27;100.00
48041;BME280;33815;48.386;11.738;2024-03-22T05:02:50;97066.56;;;0.25;100.00
48041;BME280;33815;48.386;11.738;2024-03-22T05:05:16;97080.59;;;0.35;100.00
48041;BME280;33815;48.386;11.738;2024-03-22T05:07:41;97069.34;;;0.38;100.00
48041;BME280;33815;48.386;11.738;2024-03-22T05:10:07;97067.56;;;0.40;100.00
48041;BME280;33815;48.386;11.738;2024-03-22T05:12:34;97085.50;;;0.57;100.00
48041;BME280;33815;48.386;11.738;2024-03-22T05:14:59;97069.06;;;0.61;100.00
48041;BME280;33815;48.386;11.738;2024-03-22T05:17:24;97075.78;;;0.64;100.00
48041;BME280;33815;48.386;11.738;2024-03-22T05:19:50;97090.41;;;0.79;100.00
48041;BME280;33815;48.386;11.738;2024-03-22T05:22:15;97074.31;;;0.76;100.00
48041;BME280;33815;48.386;11.738;2024-03-22T05:24:40;97080.59;;;0.88;100.00
48041;BME280;33815;48.386;11.738;2024-03-22T05:27:06;97074.38;;;0.92;100.00
48041;BME280;33815;48.386;11.738;2024-03-22T05:29:31;97079.81;;;1.03;100.00
48041;BME280;33815;48.386;11.738;2024-03-22T05:31:56;97065.31;;;1.02;100.00
48041;BME280;33815;48.386;11.738;2024-03-22T05:34:22;97074.56;;;1.22;100.00
48041;BME280;33815;48.386;11.738;2024-03-22T05:36:48;97076.00;;;1.10;100.00
48041;BME280;33815;48.386;11.738;2024-03-22T05:39:13;97075.81;;;0.97;100.00
48041;BME280;33815;48.386;11.738;2024-03-22T05:41:39;97078.63;;;0.93;100.00
48041;BME280;33815;48.386;11.738;2024-03-22T05:44:05;97057.94;;;0.78;100.00
48041;BME280;33815;48.386;11.738;2024-03-22T05:46:30;97044.66;;;0.70;100.00
48041;BME280;33815;48.386;11.738;2024-03-22T05:48:56;97066.25;;;0.83;100.00
48041;BME280;33815;48.386;11.738;2024-03-22T05:51:22;97049.66;;;0.73;100.00
48041;BME280;33815;48.386;11.738;2024-03-22T05:53:47;97045.53;;;0.71;100.00
48041;BME280;33815;48.386;11.738;2024-03-22T05:56:12;97049.88;;;0.68;100.00
48041;BME280;33815;48.386;11.738;2024-03-22T05:58:38;97043.94;;;0.68;100.00
48041;BME280;33815;48.386;11.738;2024-03-22T06:01:03;97063.44;;;0.88;100.00
48041;BME280;33815;48.386;11.738;2024-03-22T06:03:29;97049.88;;;0.86;100.00
48041;BME280;33815;48.386;11.738;2024-03-22T06:05:54;97064.78;;;0.95;100.00
48041;BME280;33815;48.386;11.738;2024-03-22T06:08:28;97062.97;;;0.97;100.00
48041;BME280;33815;48.386;11.738;2024-03-22T06:10:54;97058.38;;;1.04;100.00
48041;BME280;33815;48.386;11.738;2024-03-22T06:13:20;97053.97;;;1.06;100.00
48041;BME280;33815;48.386;11.738;2024-03-22T06:15:48;97056.97;;;1.14;100.00
48041;BME280;33815;48.386;11.738;2024-03-22T06:18:14;97038.41;;;1.09;100.00
48041;BME280;33815;48.386;11.738;2024-03-22T06:20:39;97037.69;;;1.23;100.00
48041;BME280;33815;48.386;11.738;2024-03-22T06:23:05;97040.28;;;1.39;100.00
48041;BME280;33815;48.386;11.738;2024-03-22T06:25:30;97025.09;;;1.34;100.00
48041;BME280;33815;48.386;11.738;2024-03-22T06:27:55;97025.69;;;1.40;100.00
48041;BME280;33815;48.386;11.738;2024-03-22T06:30:21;97031.16;;;1.49;100.00
48041;BME280;33815;48.386;11.738;2024-03-22T06:32:46;97040.69;;;1.63;100.00
48041;BME280;33815;48.386;11.738;2024-03-22T06:35:12;97039.84;;;1.79;100.00
48041;BME280;33815;48.386;11.738;2024-03-22T06:37:39;97027.50;;;1.85;100.00
48041;BME280;33815;48.386;11.738;2024-03-22T06:40:06;97030.13;;;2.00;100.00
48041;BME280;33815;48.386;11.738;2024-03-22T06:42:31;97035.13;;;2.17;100.00
48041;BME280;33815;48.386;11.738;2024-03-22T06:44:57;97024.16;;;2.30;100.00
48041;BME280;33815;48.386;11.738;2024-03-22T06:47:22;97039.00;;;2.55;100.00
48041;BME280;33815;48.386;11.738;2024-03-22T06:49:48;97039.84;;;2.70;100.00
48041;BME280;33815;48.386;11.738;2024-03-22T06:52:13;97041.53;;;2.85;100.00
48041;BME280;33815;48.386;11.738;2024-03-22T06:54:40;97044.94;;;3.00;100.00
48041;BME280;33815;48.386;11.738;2024-03-22T06:57:05;97044.94;;;3.15;100.00
48041;BME280;33815;48.386;11.738;2024-03-22T06:59:30;97034.16;;;3.22;100.00
48041;BME280;33815;48.386;11.738;2024-03-22T07:01:56;97041.13;;;3.49;100.00
48041;BME280;33815;48.386;11.738;2024-03-22T07:04:22;97033.53;;;3.75;100.00
48041;BME280;33815;48.386;11.738;2024-03-22T07:06:47;97028.47;;;4.01;100.00
48041;BME280;33815;48.386;11.738;2024-03-22T07:09:12;97035.22;;;4.29;100.00
48041;BME280;33815;48.386;11.738;2024-03-22T07:11:37;97036.53;;;4.49;100.00
48041;BME280;33815;48.386;11.738;2024-03-22T07:14:03;97034.28;;;4.70;100.00
48041;BME280;33815;48.386;11.738;2024-03-22T07:16:28;97035.94;;;4.97;100.00
48041;BME280;33815;48.386;11.738;2024-03-22T07:18:53;97034.03;;;5.12;100.00
48041;BME280;33815;48.386;11.738;2024-03-22T07:21:18;97021.13;;;5.12;100.00
48041;BME280;33815;48.386;11.738;2024-03-22T07:23:44;97035.09;;;5.22;100.00
48041;BME280;33815;48.386;11.738;2024-03-22T07:26:09;97034.44;;;5.31;100.00
48041;BME280;33815;48.386;11.738;2024-03-22T07:28:34;97028.19;;;5.60;100.00
48041;BME280;33815;48.386;11.738;2024-03-22T07:31:00;97008.41;;;5.59;100.00
48041;BME280;33815;48.386;11.738;2024-03-22T07:33:25;97012.91;;;5.81;100.00
48041;BME280;33815;48.386;11.738;2024-03-22T07:35:50;97015.50;;;6.05;100.00
48041;BME280;33815;48.386;11.738;2024-03-22T07:38:16;97002.84;;;5.89;100.00
48041;BME280;33815;48.386;11.738;2024-03-22T07:40:42;97010.00;;;6.10;100.00
48041;BME280;33815;48.386;11.738;2024-03-22T07:43:07;97006.34;;;6.12;100.00
48041;BME280;33815;48.386;11.738;2024-03-22T07:45:34;97008.63;;;6.28;100.00
48041;BME280;33815;48.386;11.738;2024-03-22T07:48:00;97006.47;;;6.46;100.00
48041;BME280;33815;48.386;11.738;2024-03-22T07:50:25;97007.09;;;6.61;100.00
48041;BME280;33815;48.386;11.738;2024-03-22T07:52:50;97009.13;;;6.80;100.00
48041;BME280;33815;48.386;11.738;2024-03-22T07:55:16;96994.41;;;7.03;100.00
48041;BME280;33815;48.386;11.738;2024-03-22T07:57:41;97001.56;;;7.57;100.00
48041;BME280;33815;48.386;11.738;2024-03-22T08:00:07;96994.16;;;7.52;100.00
48041;BME280;33815;48.386;11.738;2024-03-22T08:02:33;96994.13;;;7.63;100.00
48041;BME280;33815;48.386;11.738;2024-03-22T08:04:58;96993.53;;;7.92;100.00
48041;BME280;33815;48.386;11.738;2024-03-22T08:07:23;96990.81;;;7.94;100.00
48041;BME280;33815;48.386;11.738;2024-03-22T08:09:49;96986.81;;;7.89;100.00
48041;BME280;33815;48.386;11.738;2024-03-22T08:12:14;97001.97;;;8.17;100.00
48041;BME280;33815;48.386;11.738;2024-03-22T08:14:39;96990.03;;;8.14;100.00
48041;BME280;33815;48.386;11.738;2024-03-22T08:17:05;96998.25;;;8.31;100.00
48041;BME280;33815;48.386;11.738;2024-03-22T08:19:31;96994.81;;;8.30;100.00
48041;BME280;33815;48.386;11.738;2024-03-22T08:21:56;96980.63;;;8.34;100.00
48041;BME280;33815;48.386;11.738;2024-03-22T08:24:22;96988.41;;;8.77;100.00
48041;BME280;33815;48.386;11.738;2024-03-22T08:26:47;96988.44;;;9.38;100.00
48041;BME280;33815;48.386;11.738;2024-03-22T08:29:15;96981.78;;;9.75;100.00
48041;BME280;33815;48.386;11.738;2024-03-22T08:31:41;96979.22;;;10.04;100.00
48041;BME280;33815;48.386;11.738;2024-03-22T08:34:08;96962.22;;;10.10;100.00
48041;BME280;33815;48.386;11.738;2024-03-22T08:36:33;96979.88;;;10.16;100.00
48041;BME280;33815;48.386;11.738;2024-03-22T08:38:58;96982.47;;;10.26;100.00
48041;BME280;33815;48.386;11.738;2024-03-22T08:41:24;96965.47;;;10.51;100.00
48041;BME280;33815;48.386;11.738;2024-03-22T08:43:49;96979.28;;;11.09;100.00
48041;BME280;33815;48.386;11.738;2024-03-22T08:46:14;96969.50;;;11.21;100.00
48041;BME280;33815;48.386;11.738;2024-03-22T08:48:40;96965.50;;;11.72;100.00
48041;BME280;33815;48.386;11.738;2024-03-22T08:51:05;96951.88;;;11.96;100.00
48041;BME280;33815;48.386;11.738;2024-03-22T08:53:30;96956.81;;;12.44;100.00
48041;BME280;33815;48.386;11.738;2024-03-22T08:55:56;96967.63;;;12.67;100.00
48041;BME280;33815;48.386;11.738;2024-03-22T08:58:21;96950.13;;;12.67;100.00
48041;BME280;33815;48.386;11.738;2024-03-22T09:00:46;96954.13;;;13.14;97.15
48041;BME280;33815;48.386;11.738;2024-03-22T09:03:12;96949.88;;;13.56;96.11
48041;BME280;33815;48.386;11.738;2024-03-22T09:05:37;96947.00;;;13.33;94.83
48041;BME280;33815;48.386;11.738;2024-03-22T09:08:03;96946.91;;;13.43;92.74
48041;BME280;33815;48.386;11.738;2024-03-22T09:10:29;96936.41;;;13.00;91.24
48041;BME280;33815;48.386;11.738;2024-03-22T09:12:54;96941.47;;;13.36;93.21
48041;BME280;33815;48.386;11.738;2024-03-22T09:15:21;96941.69;;;13.16;95.46
48041;BME280;33815;48.386;11.738;2024-03-22T09:17:46;96949.19;;;13.11;92.20
48041;BME280;33815;48.386;11.738;2024-03-22T09:20:12;96939.69;;;13.02;86.37
48041;BME280;33815;48.386;11.738;2024-03-22T09:22:37;96937.47;;;13.24;88.86
48041;BME280;33815;48.386;11.738;2024-03-22T09:25:04;96931.00;;;13.36;84.38
48041;BME280;33815;48.386;11.738;2024-03-22T09:27:30;96929.03;;;13.38;83.20
48041;BME280;33815;48.386;11.738;2024-03-22T09:29:55;96929.28;;;13.61;81.77
48041;BME280;33815;48.386;11.738;2024-03-22T09:32:20;96915.94;;;13.38;80.66
48041;BME280;33815;48.386;11.738;2024-03-22T09:34:48;96914.09;;;13.30;80.97
48041;BME280;33815;48.386;11.738;2024-03-22T09:37:14;96922.19;;;13.37;85.68
48041;BME280;33815;48.386;11.738;2024-03-22T09:39:39;96910.09;;;13.44;84.50
48041;BME280;33815;48.386;11.738;2024-03-22T09:42:06;96923.59;;;13.31;80.63
48041;BME280;33815;48.386;11.738;2024-03-22T09:44:32;96925.34;;;13.23;81.53
48041;BME280;33815;48.386;11.738;2024-03-22T09:46:59;96914.84;;;13.06;83.30
48041;BME280;33815;48.386;11.738;2024-03-22T09:49:24;96904.19;;;12.99;85.11
48041;BME280;33815;48.386;11.738;2024-03-22T09:51:51;96918.03;;;12.83;87.75
48041;BME280;33815;48.386;11.738;2024-03-22T09:54:16;96904.44;;;12.80;86.54
48041;BME280;33815;48.386;11.738;2024-03-22T09:56:42;96911.09;;;12.74;86.69
48041;BME280;33815;48.386;11.738;2024-03-22T09:59:08;96889.38;;;12.74;90.45
48041;BME280;33815;48.386;11.738;2024-03-22T10:01:38;96886.63;;;12.83;85.22
48041;BME280;33815;48.386;11.738;2024-03-22T10:04:05;96888.72;;;13.14;88.67
48041;BME280;33815;48.386;11.738;2024-03-22T10:06:30;96892.59;;;13.61;88.40
48041;BME280;33815;48.386;11.738;2024-03-22T10:08:59;96889.50;;;13.82;85.29
48041;BME280;33815;48.386;11.738;2024-03-22T10:11:27;96890.50;;;13.98;82.31
48041;BME280;33815;48.386;11.738;2024-03-22T10:13:53;96878.06;;;13.92;80.32
48041;BME280;33815;48.386;11.738;2024-03-22T10:16:20;96890.09;;;14.59;78.06
48041;BME280;33815;48.386;11.738;2024-03-22T10:18:46;96865.50;;;14.76;76.61
48041;BME280;33815;48.386;11.738;2024-03-22T10:21:17;96870.19;;;14.89;73.03
48041;BME280;33815;48.386;11.738;2024-03-22T10:23:43;96870.06;;;15.45;71.02
48041;BME280;33815;48.386;11.738;2024-03-22T10:26:09;96866.34;;;15.63;67.50
48041;BME280;33815;48.386;11.738;2024-03-22T10:28:35;96868.22;;;15.77;65.89
48041;BME280;33815;48.386;11.738;2024-03-22T10:31:01;96868.88;;;15.79;71.90
48041;BME280;33815;48.386;11.738;2024-03-22T10:33:28;96835.09;;;15.68;63.18
48041;BME280;33815;48.386;11.738;2024-03-22T10:35:53;96859.09;;;16.11;63.62
48041;BME280;33815;48.386;11.738;2024-03-22T10:38:20;96853.78;;;16.34;63.86
48041;BME280;33815;48.386;11.738;2024-03-22T10:40:46;96858.78;;;16.59;64.35
48041;BME280;33815;48.386;11.738;2024-03-22T10:43:16;96862.69;;;16.63;66.60
48041;BME280;33815;48.386;11.738;2024-03-22T10:45:42;96845.09;;;16.49;59.58
48041;BME280;33815;48.386;11.738;2024-03-22T10:48:11;96850.44;;;16.55;58.58
48041;BME280;33815;48.386;11.738;2024-03-22T10:50:40;96847.94;;;16.09;59.29
48041;BME280;33815;48.386;11.738;2024-03-22T10:53:09;96832.78;;;15.73;60.74
48041;BME280;33815;48.386;11.738;2024-03-22T10:55:42;96844.44;;;16.32;59.79
48041;BME280;33815;48.386;11.738;2024-03-22T10:58:15;96812.03;;;16.76;58.24
48041;BME280;33815;48.386;11.738;2024-03-22T11:00:42;96818.78;;;16.93;55.72
48041;BME280;33815;48.386;11.738;2024-03-22T11:03:08;96814.94;;;16.06;54.02
48041;BME280;33815;48.386;11.738;2024-03-22T11:05:33;96828.66;;;16.47;54.16
48041;BME280;33815;48.386;11.738;2024-03-22T11:08:03;96810.22;;;16.91;52.31
48041;BME280;33815;48.386;11.738;2024-03-22T11:10:30;96788.94;;;17.08;52.27
48041;BME280;33815;48.386;11.738;2024-03-22T11:12:56;96799.59;;;17.00;53.71
48041;BME280;33815;48.386;11.738;2024-03-22T11:15:25;96798.91;;;16.61;53.41
48041;BME280;33815;48.386;11.738;2024-03-22T11:17:50;96795.91;;;16.64;53.69
48041;BME280;33815;48.386;11.738;2024-03-22T11:20:16;96795.78;;;17.02;54.61
48041;BME280;33815;48.386;11.738;2024-03-22T11:22:41;96787.19;;;17.15;52.96
48041;BME280;33815;48.386;11.738;2024-03-22T11:25:07;96783.72;;;17.79;53.18
48041;BME280;33815;48.386;11.738;2024-03-22T11:27:32;96746.16;;;17.71;49.75
48041;BME280;33815;48.386;11.738;2024-03-22T11:29:57;96766.84;;;17.95;51.28
48041;BME280;33815;48.386;11.738;2024-03-22T11:32:23;96755.78;;;18.07;49.72
48041;BME280;33815;48.386;11.738;2024-03-22T11:34:49;96751.34;;;18.14;50.61
48041;BME280;33815;48.386;11.738;2024-03-22T11:37:14;96749.09;;;18.53;48.88
48041;BME280;33815;48.386;11.738;2024-03-22T11:39:40;96727.00;;;18.19;48.05
48041;BME280;33815;48.386;11.738;2024-03-22T11:42:06;96718.78;;;17.72;48.73
48041;BME280;33815;48.386;11.738;2024-03-22T11:44:33;96722.84;;;17.96;49.80
48041;BME280;33815;48.386;11.738;2024-03-22T11:47:00;96720.25;;;18.03;49.97
48041;BME280;33815;48.386;11.738;2024-03-22T11:49:25;96708.59;;;17.62;49.53
48041;BME280;33815;48.386;11.738;2024-03-22T11:51:52;96709.44;;;17.41;50.66
48041;BME280;33815;48.386;11.738;2024-03-22T11:54:20;96709.56;;;17.33;50.90
48041;BME280;33815;48.386;11.738;2024-03-22T11:56:46;96711.69;;;17.44;51.52
48041;BME280;33815;48.386;11.738;2024-03-22T11:59:11;96705.44;;;17.52;51.38
48041;BME280;33815;48.386;11.738;2024-03-22T12:01:36;96689.63;;;17.45;50.09
48041;BME280;33815;48.386;11.738;2024-03-22T12:04:02;96710.28;;;17.20;52.42
48041;BME280;33815;48.386;11.738;2024-03-22T12:06:27;96683.44;;;17.38;50.68
48041;BME280;33815;48.386;11.738;2024-03-22T12:08:53;96685.59;;;17.27;51.25
48041;BME280;33815;48.386;11.738;2024-03-22T12:11:18;96680.78;;;17.59;50.90
48041;BME280;33815;48.386;11.738;2024-03-22T12:13:43;96685.19;;;17.52;51.79
48041;BME280;33815;48.386;11.738;2024-03-22T12:16:09;96672.25;;;17.57;51.48
48041;BME280;33815;48.386;11.738;2024-03-22T12:18:34;96677.16;;;17.10;52.18
48041;BME280;33815;48.386;11.738;2024-03-22T12:21:00;96685.94;;;17.18;52.88
48041;BME280;33815;48.386;11.738;2024-03-22T12:23:25;96678.22;;;17.16;51.98
48041;BME280;33815;48.386;11.738;2024-03-22T12:25:51;96670.16;;;17.81;54.21
48041;BME280;33815;48.386;11.738;2024-03-22T12:28:17;96655.56;;;18.07;48.75
48041;BME280;33815;48.386;11.738;2024-03-22T12:30:43;96661.88;;;17.84;51.36
48041;BME280;33815;48.386;11.738;2024-03-22T12:33:09;96652.66;;;17.67;50.00
48041;BME280;33815;48.386;11.738;2024-03-22T12:35:36;96652.59;;;17.60;52.02
48041;BME280;33815;48.386;11.738;2024-03-22T12:38:02;96643.81;;;17.81;51.82
48041;BME280;33815;48.386;11.738;2024-03-22T12:40:29;96649.22;;;17.73;53.51
48041;BME280;33815;48.386;11.738;2024-03-22T12:42:54;96642.81;;;17.82;51.34